Asert, OR

11:21 PM PST on February 12, 2016 (GMT -0800)
Hogan and Roberts | | Change Station
CLOSE
Current Station
Personal Weather Station
Location: Gresham, OR
Elevation: 384 ft
Nearby Weather Stations

Elev 384 ft 45.49 °N, 122.42 °W | Updated 3 seconds ago

Mostly Cloudy
Mostly Cloudy
47.1 °F
Feels Like 45 °F
N
5.4
Wind Variable Wind from South
Gusts 5.4 mph

Today
High -- | Low -- °F
--% Chance of Precip.
Yesterday
High -- | Low -- °F
Precip. -- in
Pressure 30.28 in
Visibility 6.0 miles
Clouds Overcast 4800 ft
Windchill 45 °F
Dew Point 42 °F
Humidity 82%
Rainfall 0.00 in
Snow Depth Not available.
7:16 AM 5:31 PM
Waxing Crescent, 28% visible
METAR KTTD 130653Z AUTO 00000KT 6SM OVC048 06/05 A3028 RMK AO2 SLP254 T00610050
Pressure 30.28 in
Visibility 6.0 miles
Clouds Overcast 4800 ft
Windchill 45 °F
Dew Point 42 °F
Humidity 82%
Rainfall 0.00 in
Snow Depth Not available.
7:16 AM 5:31 PM
Waxing Crescent, 28% visible
METAR KTTD 130653Z AUTO 00000KT 6SM OVC048 06/05 A3028 RMK AO2 SLP254 T00610050

10-Day Weather Forecast

Almanac

Astronomy

Feb. 12, 2016 Rise Set
Actual Time
Civil Twilight
Nautical Twilight
Astronomical Twilight
Moon
Length of Visible Light
Length of Day
Tomorrow will be .
, % of the Moon is Illuminated

Today's Extremes

State Highs State Lows

Community

WunderPhotos

Upload Photos

1,892,526 photos uploaded!

WunderBlog® & News

Nearby

Air Quality

  Air Quality AQ Index Pollutant
Not available.

Snow Depth

Station Depth Elevation

Earthquake Activity

City Distance Mag. Time & Date
Minimum magnitude displayed is 2.5.

Coastal Water Temperatures

Place Temperature

Stations

Nearby Weather Stations

Station Location Temp. Windchill Dew Point Humidity Wind Precip. Elev Updated Type
                   

Watches & Warnings

There are currently no watches in effect.